createdAt,value
2023-03-04T00:00:56.371Z,81.32
2023-03-04T00:03:26.490Z,81.58
2023-03-04T00:05:56.247Z,81.13
2023-03-04T00:08:26.006Z,81.35
2023-03-04T00:10:55.772Z,81.35
2023-03-04T00:13:25.758Z,81.03
2023-03-04T00:15:58.226Z,81.15
2023-03-04T00:18:28.001Z,81.54
2023-03-04T00:20:57.612Z,81.51
2023-03-04T00:23:27.381Z,81.61
2023-03-04T00:25:57.206Z,81.71
2023-03-04T00:28:27.029Z,81.35
2023-03-04T00:30:59.637Z,81.49
2023-03-04T00:33:29.413Z,81.13
2023-03-04T00:35:59.043Z,80.99
2023-03-04T00:38:28.885Z,80.90
2023-03-04T00:40:58.547Z,81.17
2023-03-04T00:43:28.338Z,81.19
2023-03-04T00:46:00.859Z,80.75
2023-03-04T00:48:30.551Z,80.94
2023-03-04T00:51:00.177Z,81.45
2023-03-04T00:53:29.864Z,81.64
2023-03-04T00:55:59.522Z,81.02
2023-03-04T00:58:29.130Z,81.56
2023-03-04T01:01:01.489Z,81.63
2023-03-04T01:03:32.773Z,81.50
2023-03-04T01:06:02.447Z,81.88
2023-03-04T01:08:32.081Z,81.41
2023-03-04T01:11:01.876Z,81.21
2023-03-04T01:13:31.573Z,81.00
2023-03-04T01:16:05.136Z,80.87
2023-03-04T01:18:35.081Z,80.89
2023-03-04T01:21:05.496Z,80.72
2023-03-04T01:23:35.135Z,81.03
2023-03-04T01:26:04.751Z,81.51
2023-03-04T01:28:35.985Z,81.23
2023-03-04T01:31:08.489Z,81.49
2023-03-04T01:33:38.224Z,81.21
2023-03-04T01:36:08.386Z,81.78
2023-03-04T01:38:38.061Z,81.93
2023-03-04T01:41:08.515Z,82.16
2023-03-04T01:43:40.150Z,81.94
2023-03-04T01:46:12.951Z,82.14
2023-03-04T01:48:42.760Z,82.55
2023-03-04T01:51:16.917Z,82.32
2023-03-04T01:53:47.474Z,82.26
2023-03-04T01:56:21.970Z,82.26
2023-03-04T01:59:14.321Z,81.80
2023-03-04T02:01:49.068Z,82.43
2023-03-04T02:04:20.612Z,82.27
2023-03-04T02:06:51.882Z,82.01
2023-03-04T02:09:22.882Z,82.26
2023-03-04T02:11:53.830Z,82.08
2023-03-04T02:14:24.641Z,81.93
2023-03-04T02:16:57.046Z,82.12
2023-03-04T02:19:47.585Z,81.54
2023-03-04T02:22:17.321Z,82.19
2023-03-04T02:24:51.732Z,82.04
2023-03-04T02:27:24.283Z,82.36
2023-03-04T02:29:55.141Z,81.96
2023-03-04T02:32:24.929Z,82.13
2023-03-04T02:34:54.750Z,82.16
2023-03-04T02:37:24.728Z,82.25
2023-03-04T02:39:57.030Z,82.27
2023-03-04T02:42:29.267Z,82.35
2023-03-04T02:45:03.987Z,82.19
2023-03-04T02:47:33.751Z,82.30
2023-03-04T02:50:03.725Z,82.21
2023-03-04T02:52:34.031Z,82.50
2023-03-04T02:55:03.822Z,82.40
2023-03-04T02:57:36.027Z,82.52
2023-03-04T03:00:06.239Z,82.35
2023-03-04T03:02:35.941Z,82.55
2023-03-04T03:05:05.785Z,82.79
2023-03-04T03:07:35.847Z,82.52
2023-03-04T03:10:05.607Z,82.77
2023-03-04T03:12:37.972Z,83.13
2023-03-04T03:15:09.042Z,82.54
2023-03-04T03:17:38.969Z,83.28
2023-03-04T03:20:10.394Z,82.79
2023-03-04T03:22:40.224Z,83.03
2023-03-04T03:25:11.800Z,83.25
2023-03-04T03:27:44.459Z,83.18
2023-03-04T03:30:18.005Z,83.36
2023-03-04T03:32:47.623Z,83.71
2023-03-04T03:35:17.626Z,84.14
2023-03-04T03:37:49.038Z,83.36
2023-03-04T03:40:18.802Z,83.49
2023-03-04T03:42:51.147Z,84.02
2023-03-04T03:45:20.900Z,84.06
2023-03-04T03:47:50.552Z,84.01
2023-03-04T03:50:20.462Z,83.60
2023-03-04T03:52:50.122Z,84.01
2023-03-04T03:55:19.812Z,83.99
2023-03-04T03:57:52.014Z,83.88
2023-03-04T04:00:22.559Z,83.79
2023-03-04T04:02:52.614Z,83.70
2023-03-04T04:05:22.448Z,83.24
2023-03-04T04:07:54.074Z,83.20
2023-03-04T04:10:24.136Z,83.73
2023-03-04T04:12:56.342Z,83.88
2023-03-04T04:15:25.952Z,83.98
2023-03-04T04:17:55.582Z,84.06
2023-03-04T04:20:26.305Z,84.04
2023-03-04T04:22:56.005Z,84.32
2023-03-04T04:25:25.959Z,84.32
2023-03-04T04:27:58.318Z,84.75
2023-03-04T04:30:28.348Z,84.49
2023-03-04T04:33:01.647Z,85.04
2023-03-04T04:35:31.498Z,84.62
2023-03-04T04:38:01.141Z,85.06
2023-03-04T04:40:30.733Z,84.61
2023-03-04T04:43:02.961Z,85.03
2023-03-04T04:45:32.605Z,84.66
2023-03-04T04:48:02.233Z,84.87
2023-03-04T04:50:33.019Z,84.63
2023-03-04T04:53:02.858Z,85.01
2023-03-04T04:55:32.737Z,85.26
2023-03-04T04:58:04.927Z,85.02
2023-03-04T05:00:34.539Z,85.79
2023-03-04T05:03:04.234Z,85.92
2023-03-04T05:05:33.980Z,85.82
2023-03-04T05:08:03.719Z,86.93
2023-03-04T05:10:33.348Z,86.50
2023-03-04T05:13:05.560Z,87.08
2023-03-04T05:15:35.251Z,86.97
2023-03-04T05:18:07.675Z,87.41
2023-03-04T05:20:37.351Z,87.65
2023-03-04T05:23:07.100Z,87.70
2023-03-04T05:25:36.853Z,88.26
2023-03-04T05:28:12.498Z,88.46
2023-03-04T05:30:42.529Z,88.62
2023-03-04T05:33:13.865Z,88.44
2023-03-04T05:35:44.714Z,88.31
2023-03-04T05:38:15.757Z,89.18
2023-03-04T05:40:46.232Z,89.04
2023-03-04T05:43:19.236Z,89.89
2023-03-04T05:45:48.921Z,89.95
2023-03-04T05:48:18.747Z,90.54
2023-03-04T05:50:48.609Z,92.10
2023-03-04T05:53:18.210Z,92.03
2023-03-04T05:55:49.888Z,91.92
2023-03-04T05:58:23.210Z,92.37
2023-03-04T06:00:53.056Z,91.58
2023-03-04T06:03:25.270Z,92.61
2023-03-04T06:05:56.020Z,92.93
2023-03-04T06:08:25.780Z,92.92
2023-03-04T06:10:56.919Z,93.16
2023-03-04T06:13:29.471Z,93.41
2023-03-04T06:16:01.098Z,93.43
2023-03-04T06:18:31.924Z,93.66
2023-03-04T06:21:02.290Z,94.01
2023-03-04T06:23:32.794Z,94.45
2023-03-04T06:26:03.552Z,94.80
2023-03-04T06:28:35.831Z,94.84
2023-03-04T06:31:05.608Z,96.19
2023-03-04T06:33:35.452Z,96.50
2023-03-04T06:36:05.176Z,97.28
2023-03-04T06:38:34.788Z,97.82
2023-03-04T06:41:09.738Z,98.87
2023-03-04T06:43:42.453Z,99.95
2023-03-04T06:46:12.523Z,100.00
2023-03-04T06:48:42.395Z,100.00
2023-03-04T06:51:13.613Z,100.00
2023-03-04T06:53:44.113Z,100.00
2023-03-04T06:56:16.177Z,100.00
2023-03-04T06:58:49.109Z,100.00
2023-03-04T07:01:20.960Z,100.00
2023-03-04T07:03:51.587Z,100.00
2023-03-04T07:06:23.880Z,100.00
2023-03-04T07:08:54.025Z,100.00
2023-03-04T07:11:24.954Z,100.00
2023-03-04T07:13:57.393Z,100.00
2023-03-04T07:16:27.415Z,100.00
2023-03-04T07:18:57.099Z,100.00
2023-03-04T07:21:27.173Z,100.00
2023-03-04T07:23:56.866Z,100.00
2023-03-04T07:26:26.856Z,100.00
2023-03-04T07:28:59.985Z,100.00
2023-03-04T07:31:32.179Z,100.00
2023-03-04T07:34:03.725Z,100.00
2023-03-04T07:36:34.365Z,100.00
2023-03-04T07:39:04.002Z,100.00
2023-03-04T07:41:36.406Z,100.00
2023-03-04T07:44:12.764Z,100.00
2023-03-04T07:46:42.821Z,100.00
2023-03-04T07:49:14.717Z,100.00
2023-03-04T07:51:44.371Z,100.00
2023-03-04T07:54:14.017Z,100.00
2023-03-04T07:56:43.699Z,100.00
2023-03-04T07:59:15.877Z,100.00
2023-03-04T08:01:45.793Z,100.00
2023-03-04T08:04:15.527Z,100.00
2023-03-04T08:06:45.231Z,100.00
2023-03-04T08:09:15.170Z,100.00
2023-03-04T08:11:45.986Z,100.00
2023-03-04T08:14:18.267Z,100.00
2023-03-04T08:16:47.889Z,100.00
2023-03-04T08:19:17.587Z,100.00
2023-03-04T08:21:47.920Z,100.00
2023-03-04T08:24:17.795Z,100.00
2023-03-04T08:26:50.451Z,100.00
2023-03-04T08:29:24.892Z,100.00
2023-03-04T08:31:56.256Z,100.00
2023-03-04T08:34:28.747Z,100.00
2023-03-04T08:36:58.524Z,100.00
2023-03-04T08:39:28.134Z,100.00
2023-03-04T08:41:57.760Z,100.00
2023-03-04T08:44:30.139Z,100.00
2023-03-04T08:46:59.826Z,100.00
2023-03-04T08:49:29.418Z,100.00
2023-03-04T08:51:59.031Z,100.00
2023-03-04T08:54:28.640Z,100.00
2023-03-04T08:56:58.697Z,100.00
2023-03-04T08:59:30.935Z,100.00
2023-03-04T09:02:00.678Z,100.00
2023-03-04T09:04:30.324Z,100.00
2023-03-04T09:07:00.003Z,100.00
2023-03-04T09:09:29.873Z,100.00
2023-03-04T09:11:59.509Z,100.00
2023-03-04T09:14:32.729Z,100.00
2023-03-04T09:17:02.534Z,100.00
2023-03-04T09:19:32.402Z,100.00
2023-03-04T09:22:02.220Z,99.77
2023-03-04T09:24:32.125Z,98.60
2023-03-04T09:27:01.753Z,95.64
2023-03-04T09:29:33.985Z,96.36
2023-03-04T09:32:03.688Z,97.04
2023-03-04T09:34:33.353Z,97.36
2023-03-04T09:37:02.987Z,97.55
2023-03-04T09:39:32.628Z,98.40
2023-03-04T09:42:04.306Z,97.56
2023-03-04T09:44:40.502Z,98.81
2023-03-04T09:47:16.577Z,99.96
2023-03-04T09:49:51.621Z,99.83
2023-03-04T09:52:33.760Z,100.00
2023-03-04T09:55:08.889Z,100.00
2023-03-04T09:57:53.425Z,100.00
2023-03-04T10:00:28.317Z,100.00
2023-03-04T10:03:15.244Z,99.69
2023-03-04T10:05:51.533Z,98.34
2023-03-04T10:08:36.305Z,97.68
2023-03-04T10:11:12.297Z,96.71
2023-03-04T10:13:51.222Z,96.95
2023-03-04T10:16:29.344Z,96.59
2023-03-04T10:19:02.251Z,96.24
2023-03-04T10:21:36.053Z,96.15
2023-03-04T10:24:15.297Z,96.16
2023-03-04T10:26:49.187Z,95.65
2023-03-04T10:29:20.846Z,95.37
2023-03-04T10:31:56.121Z,95.51
2023-03-04T10:34:26.535Z,95.33
2023-03-04T10:37:02.577Z,95.41
2023-03-04T10:39:34.698Z,95.45
2023-03-04T10:42:07.015Z,93.72
2023-03-04T10:44:39.966Z,93.20
2023-03-04T10:47:14.362Z,92.44
2023-03-04T10:49:54.694Z,91.84
2023-03-04T10:52:31.770Z,89.88
2023-03-04T10:55:03.492Z,87.41
2023-03-04T10:57:38.729Z,87.46
2023-03-04T11:00:28.876Z,84.62
2023-03-04T11:03:27.903Z,85.39
2023-03-04T11:06:13.481Z,85.64
2023-03-04T11:08:44.406Z,85.78
2023-03-04T11:11:42.559Z,84.65
2023-03-04T11:14:26.125Z,83.90
2023-03-04T11:16:58.279Z,83.69
2023-03-04T11:19:34.197Z,84.29
2023-03-04T11:22:04.397Z,87.15
2023-03-04T11:24:38.313Z,90.50
2023-03-04T11:27:16.229Z,93.03
2023-03-04T11:29:54.951Z,94.49
2023-03-04T11:32:30.207Z,95.68
2023-03-04T11:35:13.383Z,95.66
2023-03-04T11:37:47.995Z,96.45
2023-03-04T11:40:26.192Z,95.58
2023-03-04T11:43:00.875Z,96.87
2023-03-04T11:45:38.462Z,96.21
2023-03-04T11:48:16.333Z,98.20
2023-03-04T11:50:52.444Z,98.39
2023-03-04T11:53:32.070Z,98.41
2023-03-04T11:56:25.218Z,93.43
2023-03-04T11:59:39.411Z,94.87
2023-03-04T12:02:17.228Z,94.45
2023-03-04T12:05:06.245Z,94.28
2023-03-04T12:07:49.566Z,91.76
2023-03-04T12:10:28.001Z,91.56
2023-03-04T12:13:28.369Z,92.45
2023-03-04T12:16:08.927Z,91.85
2023-03-04T12:18:54.896Z,90.39
2023-03-04T12:21:42.574Z,87.42
2023-03-04T12:24:37.347Z,86.50
2023-03-04T12:27:18.170Z,86.30
2023-03-04T12:29:54.981Z,85.81
2023-03-04T12:32:30.647Z,85.21
2023-03-04T12:35:22.302Z,83.77
2023-03-04T12:38:19.374Z,81.37
2023-03-04T12:41:03.361Z,81.37
2023-03-04T12:43:53.172Z,80.50
2023-03-04T12:46:34.741Z,80.41
2023-03-04T12:49:28.789Z,81.80
2023-03-04T12:52:09.373Z,81.70
2023-03-04T12:54:43.312Z,80.85
2023-03-04T12:57:17.625Z,79.26
2023-03-04T12:59:53.977Z,80.11
2023-03-04T13:02:37.074Z,78.28
2023-03-04T13:05:26.030Z,80.07
2023-03-04T13:08:05.201Z,78.18
2023-03-04T13:10:35.318Z,78.55
2023-03-04T13:13:07.787Z,76.80
2023-03-04T13:15:39.598Z,76.63
2023-03-04T13:18:34.417Z,75.45
2023-03-04T13:21:26.386Z,75.14
2023-03-04T13:23:56.746Z,79.75
2023-03-04T13:26:31.780Z,83.87
2023-03-04T13:35:47.984Z,85.16
2023-03-04T16:03:08.793Z,77.88
2023-03-04T16:05:40.708Z,76.93
2023-03-04T16:08:15.660Z,76.31
2023-03-04T16:10:46.560Z,76.34
2023-03-04T16:13:19.521Z,75.71
2023-03-04T16:15:49.999Z,74.70
2023-03-04T16:18:23.766Z,74.92
2023-03-04T16:20:54.095Z,74.64
2023-03-04T16:23:26.541Z,74.66
2023-03-04T16:25:58.365Z,73.93
2023-03-04T16:28:28.041Z,74.33
2023-03-04T16:30:57.684Z,74.00
2023-03-04T16:33:29.873Z,72.47
2023-03-04T16:36:00.033Z,72.82
2023-03-04T16:38:34.141Z,72.11
2023-03-04T16:41:05.127Z,72.26
2023-03-04T16:43:35.139Z,72.37
2023-03-04T16:46:04.866Z,72.31
2023-03-04T16:48:37.249Z,72.53
2023-03-04T16:51:20.597Z,74.32
2023-03-04T16:53:52.134Z,75.57
2023-03-04T16:56:22.857Z,77.55
2023-03-04T16:58:54.858Z,78.75
2023-03-04T17:01:26.862Z,80.04
2023-03-04T17:04:00.375Z,79.46
2023-03-04T17:06:30.636Z,79.93
2023-03-04T17:09:00.339Z,79.72
2023-03-04T17:11:29.957Z,79.37
2023-03-04T17:13:59.619Z,79.59
2023-03-04T17:16:29.723Z,79.33
2023-03-04T17:19:02.565Z,78.80
2023-03-04T17:21:32.185Z,78.54
2023-03-04T17:24:03.224Z,77.88
2023-03-04T17:26:33.841Z,77.68
2023-03-04T17:29:03.531Z,77.92
2023-03-04T17:31:33.296Z,77.68
2023-03-04T17:34:06.091Z,77.87
2023-03-04T17:36:36.323Z,77.67
2023-03-04T17:39:06.951Z,77.76
2023-03-04T17:41:36.737Z,77.94
2023-03-04T17:44:06.776Z,77.49
2023-03-04T17:46:36.584Z,76.99
2023-03-04T17:49:08.909Z,77.20
2023-03-04T17:51:41.118Z,77.55
2023-03-04T17:54:12.019Z,77.62
2023-03-04T17:56:43.497Z,76.55
2023-03-04T17:59:16.377Z,76.55
2023-03-04T18:01:47.291Z,76.63
2023-03-04T18:04:20.157Z,76.18
2023-03-04T18:06:50.017Z,76.50
2023-03-04T18:09:20.993Z,76.43
2023-03-04T18:11:50.921Z,76.33
2023-03-04T18:14:20.567Z,76.83
2023-03-04T18:16:50.240Z,76.62
2023-03-04T18:19:22.472Z,77.16
2023-03-04T18:21:52.210Z,79.09
2023-03-04T18:24:21.879Z,82.88
2023-03-04T18:26:51.541Z,84.47
2023-03-04T18:29:21.221Z,85.78
2023-03-04T18:31:50.953Z,86.31
2023-03-04T18:34:23.323Z,86.43
2023-03-04T18:36:53.016Z,86.75
2023-03-04T18:39:22.744Z,86.90
2023-03-04T18:41:52.373Z,87.14
2023-03-04T18:44:22.010Z,86.80
2023-03-04T18:46:55.574Z,86.53
2023-03-04T18:49:28.061Z,86.11
2023-03-04T18:51:57.688Z,86.37
2023-03-04T18:54:27.392Z,85.47
2023-03-04T18:56:59.967Z,85.77
2023-03-04T18:59:33.421Z,85.24
2023-03-04T19:02:07.583Z,85.12
2023-03-04T19:04:40.693Z,84.38
2023-03-04T19:07:11.340Z,84.96
2023-03-04T19:09:41.962Z,83.74
2023-03-04T19:12:12.760Z,84.07
2023-03-04T19:14:43.720Z,83.63
2023-03-04T19:17:14.381Z,83.42
2023-03-04T19:19:46.735Z,83.65
2023-03-04T19:22:16.526Z,83.41
2023-03-04T19:24:46.146Z,83.89
2023-03-04T19:27:15.940Z,83.78
2023-03-04T19:29:45.614Z,84.24
2023-03-04T19:32:17.350Z,83.58
2023-03-04T19:34:50.356Z,83.50
2023-03-04T19:37:20.040Z,83.07
2023-03-04T19:39:50.373Z,82.69
2023-03-04T19:42:20.000Z,82.64
2023-03-04T19:44:49.674Z,82.36
2023-03-04T19:47:19.318Z,82.30
2023-03-04T19:49:51.530Z,81.62
2023-03-04T19:52:21.335Z,81.88
2023-03-04T19:54:51.020Z,82.02
2023-03-04T19:57:20.709Z,81.60
2023-03-04T19:59:50.681Z,81.98
2023-03-04T20:02:20.340Z,83.00
2023-03-04T20:04:52.531Z,83.12
2023-03-04T20:07:22.135Z,83.71
2023-03-04T20:09:51.726Z,84.25
2023-03-04T20:12:21.407Z,84.88
2023-03-04T20:14:51.224Z,86.21
2023-03-04T20:17:20.943Z,87.64
2023-03-04T20:19:53.410Z,88.34
2023-03-04T20:22:23.085Z,88.91
2023-03-04T20:24:54.886Z,88.98
2023-03-04T20:27:24.709Z,89.02
2023-03-04T20:29:55.157Z,89.02
2023-03-04T20:32:24.953Z,88.63
2023-03-04T20:34:58.342Z,88.25
2023-03-04T20:37:27.985Z,88.65
2023-03-04T20:39:58.183Z,88.76
2023-03-04T20:42:27.965Z,88.34
2023-03-04T20:44:57.611Z,87.81
2023-03-04T20:47:27.224Z,87.70
2023-03-04T20:49:59.517Z,88.01
2023-03-04T20:52:29.152Z,87.64
2023-03-04T20:54:58.817Z,87.33
2023-03-04T20:57:29.360Z,87.42
2023-03-04T20:59:59.051Z,87.49
2023-03-04T21:02:28.698Z,87.95
2023-03-04T21:05:01.422Z,87.21
2023-03-04T21:07:31.166Z,87.75
2023-03-04T21:10:00.849Z,86.97
2023-03-04T21:12:30.473Z,87.13
2023-03-04T21:15:00.125Z,86.18
2023-03-04T21:17:29.757Z,87.06
2023-03-04T21:20:02.040Z,86.54
2023-03-04T21:22:31.904Z,86.68
2023-03-04T21:25:01.506Z,87.03
2023-03-04T21:27:31.380Z,86.75
2023-03-04T21:30:01.021Z,86.56
2023-03-04T21:32:30.730Z,86.32
2023-03-04T21:35:03.115Z,86.27
2023-03-04T21:37:32.747Z,86.57
2023-03-04T21:40:02.485Z,86.60
2023-03-04T21:42:32.777Z,87.63
2023-03-04T21:45:02.569Z,87.87
2023-03-04T21:47:32.260Z,87.35
2023-03-04T21:50:04.682Z,86.71
2023-03-04T21:52:34.368Z,87.15
2023-03-04T21:55:03.964Z,87.58
2023-03-04T21:57:33.611Z,88.19
2023-03-04T22:00:04.817Z,88.24
2023-03-04T22:02:41.498Z,88.52
2023-03-04T22:05:13.846Z,88.17
2023-03-04T22:07:43.511Z,88.54
2023-03-04T22:10:14.211Z,88.54
2023-03-04T22:12:43.860Z,88.71
2023-03-04T22:15:14.392Z,88.41
2023-03-04T22:17:45.820Z,88.29
2023-03-04T22:20:18.752Z,88.63
2023-03-04T22:22:48.359Z,89.36
2023-03-04T22:25:18.149Z,89.63
2023-03-04T22:27:47.850Z,89.90
2023-03-04T22:30:18.498Z,89.88
2023-03-04T22:32:48.548Z,90.98
2023-03-04T22:35:21.330Z,90.75
2023-03-04T22:37:51.024Z,91.95
2023-03-04T22:40:20.809Z,92.13
2023-03-04T22:42:50.912Z,92.22
2023-03-04T22:45:21.669Z,91.35
2023-03-04T22:47:53.791Z,91.66
2023-03-04T22:50:26.099Z,91.38
2023-03-04T22:52:55.856Z,91.02
2023-03-04T22:55:25.904Z,91.15
2023-03-04T22:57:55.939Z,90.89
2023-03-04T23:00:28.740Z,91.39
2023-03-04T23:02:58.430Z,90.85
2023-03-04T23:05:31.172Z,91.27
2023-03-04T23:08:00.782Z,91.07
2023-03-04T23:10:30.395Z,91.57
2023-03-04T23:13:00.022Z,90.79
2023-03-04T23:15:29.665Z,90.37
2023-03-04T23:17:59.314Z,90.19
2023-03-04T23:20:31.796Z,90.40
2023-03-04T23:23:01.410Z,90.09
2023-03-04T23:25:31.084Z,90.01
2023-03-04T23:28:00.829Z,89.66
2023-03-04T23:30:30.495Z,89.93
2023-03-04T23:33:00.132Z,90.64
2023-03-04T23:35:32.630Z,90.06
2023-03-04T23:38:02.300Z,90.60
2023-03-04T23:40:31.938Z,90.88
2023-03-04T23:43:01.556Z,91.55
2023-03-04T23:45:31.444Z,91.81
2023-03-04T23:48:01.089Z,91.46
2023-03-04T23:50:35.245Z,91.14
2023-03-04T23:53:04.870Z,91.94
2023-03-04T23:55:34.987Z,91.67
2023-03-04T23:58:04.591Z,92.20
